Time;durP1;ratioP1;P1;durP2;ratioP2;P2;SDS_P1;SDS_P2;PMS_P1;PMS_P2;Temp;Humidity;BMP_temperature;BMP_pressure;BME280_temperature;BME280_humidity;BME280_pressure;Samples;Min_cycle;Max_cycle;Signal;HPM_P1;HPM_P2
2021/07/22 00:00:52;;;;;;;;;20.33;17.67;;;;;;;;4701638;30;46327;-89
2021/07/22 00:03:18;;;;;;;;;18.25;17.00;;;;;;;;4705457;30;45648;-86
2021/07/22 00:05:43;;;;;;;;;17.33;16.67;;;;;;;;4686385;30;44897;-88
2021/07/22 00:08:11;;;;;;;;;18.00;15.67;;;;;;;;4708427;30;45470;-87
2021/07/22 00:10:37;;;;;;;;;22.75;15.25;;;;;;;;4704694;30;45526;-86
2021/07/22 00:13:02;;;;;;;;;18.00;15.50;;;;;;;;4696667;30;47414;-87
2021/07/22 00:15:27;;;;;;;;;18.67;16.67;;;;;;;;4697918;30;45525;-89
2021/07/22 00:17:53;;;;;;;;;20.00;17.50;;;;;;;;4700537;30;45817;-86
2021/07/22 00:20:18;;;;;;;;;16.33;13.67;;;;;;;;4701772;30;46442;-89
2021/07/22 00:22:43;;;;;;;;;21.25;15.25;;;;;;;;4709422;30;45482;-87
2021/07/22 00:25:08;;;;;;;;;21.25;15.75;;;;;;;;4702247;30;45455;-87
2021/07/22 00:27:34;;;;;;;;;24.75;16.00;;;;;;;;4702512;30;45727;-87
2021/07/22 00:30:02;;;;;;;;;19.50;17.00;;;;;;;;4706392;30;46631;-87
2021/07/22 00:32:28;;;;;;;;;21.25;15.50;;;;;;;;4690399;30;46287;-87
2021/07/22 00:34:53;;;;;;;;;17.00;17.00;;;;;;;;4705207;30;45586;-89
2021/07/22 00:37:18;;;;;;;;;13.67;11.33;;;;;;;;4701434;30;45443;-87
2021/07/22 00:39:43;;;;;;;;;22.67;17.00;;;;;;;;4699778;30;46148;-87
2021/07/22 00:44:36;;;;;;;;;17.75;17.75;;;;;;;;4655310;30;45505;-87
2021/07/22 01:05:07;;;;;;;;;16.50;14.00;;;;;;;;4846468;24;50536;-88
2021/07/22 01:07:32;;;;;;;;;20.25;15.75;;;;;;;;4676200;30;45114;-87
2021/07/22 01:09:57;;;;;;;;;22.75;15.25;;;;;;;;4674392;30;46106;-87
2021/07/22 01:12:22;;;;;;;;;19.67;18.00;;;;;;;;4677338;30;45597;-87
2021/07/22 01:14:47;;;;;;;;;20.00;18.00;;;;;;;;4660095;30;45575;-87
2021/07/22 01:17:19;;;;;;;;;20.33;18.00;;;;;;;;4658622;30;45559;-86
2021/07/22 01:19:45;;;;;;;;;20.50;16.25;;;;;;;;4673936;30;46720;-88
2021/07/22 01:22:10;;;;;;;;;19.75;13.25;;;;;;;;4673108;30;45581;-87
2021/07/22 01:24:35;;;;;;;;;18.67;14.67;;;;;;;;4672902;30;45619;-87
2021/07/22 01:27:00;;;;;;;;;19.67;16.67;;;;;;;;4677575;30;47314;-86
2021/07/22 01:29:25;;;;;;;;;15.67;15.00;;;;;;;;4673494;30;45723;-86
2021/07/22 01:31:50;;;;;;;;;17.33;14.67;;;;;;;;4676834;30;45476;-88
2021/07/22 01:34:16;;;;;;;;;21.00;18.00;;;;;;;;4678778;30;45408;-86
2021/07/22 01:36:41;;;;;;;;;23.00;14.33;;;;;;;;4678922;30;46584;-86
2021/07/22 01:39:06;;;;;;;;;20.00;17.33;;;;;;;;4661795;30;48347;-87
2021/07/22 01:41:33;;;;;;;;;20.67;19.67;;;;;;;;4665148;30;49033;-86
2021/07/22 01:43:58;;;;;;;;;19.75;16.50;;;;;;;;4672920;30;45610;-86
2021/07/22 01:46:23;;;;;;;;;20.00;15.33;;;;;;;;4674364;30;47479;-88
2021/07/22 01:48:49;;;;;;;;;19.75;16.75;;;;;;;;4680322;30;45719;-88
2021/07/22 01:51:14;;;;;;;;;22.50;17.25;;;;;;;;4681779;30;45531;-87
2021/07/22 01:53:40;;;;;;;;;19.00;16.75;;;;;;;;4676160;30;45533;-87
2021/07/22 01:56:05;;;;;;;;;19.00;17.00;;;;;;;;4678166;30;45682;-88
2021/07/22 01:58:30;;;;;;;;;20.00;18.00;;;;;;;;4677862;30;46367;-86
2021/07/22 02:00:55;;;;;;;;;23.33;19.33;;;;;;;;4673156;30;45642;-87
2021/07/22 02:03:20;;;;;;;;;20.67;17.67;;;;;;;;4677890;30;45800;-86
2021/07/22 02:05:46;;;;;;;;;20.00;18.67;;;;;;;;4677190;30;45625;-86
2021/07/22 02:08:11;;;;;;;;;18.67;17.33;;;;;;;;4674693;30;46119;-87
2021/07/22 02:10:36;;;;;;;;;19.67;18.67;;;;;;;;4677596;30;45539;-86
2021/07/22 02:13:01;;;;;;;;;15.67;14.67;;;;;;;;4678972;30;45867;-87
2021/07/22 02:15:26;;;;;;;;;19.67;15.33;;;;;;;;4676026;30;45657;-86
2021/07/22 02:17:52;;;;;;;;;27.67;18.00;;;;;;;;4735814;24;45853;-87
2021/07/22 02:20:17;;;;;;;;;24.67;20.00;;;;;;;;4683810;30;45514;-87
2021/07/22 02:22:44;;;;;;;;;17.00;15.67;;;;;;;;4227082;24;45880;-90
2021/07/22 02:25:20;;;;;;;;;23.25;17.50;;;;;;;;4696016;30;47017;-88
2021/07/22 02:27:47;;;;;;;;;18.00;15.50;;;;;;;;4708263;30;46366;-87
2021/07/22 02:30:15;;;;;;;;;17.50;16.00;;;;;;;;4692999;30;45678;-89
2021/07/22 02:32:41;;;;;;;;;20.50;16.50;;;;;;;;4698602;30;45992;-89
2021/07/22 02:35:06;;;;;;;;;19.50;19.00;;;;;;;;4705731;30;45625;-87
2021/07/22 02:37:31;;;;;;;;;17.50;15.75;;;;;;;;4686751;30;47858;-89
2021/07/22 02:39:57;;;;;;;;;16.25;14.50;;;;;;;;4685099;30;44962;-89
2021/07/22 02:42:22;;;;;;;;;20.00;17.00;;;;;;;;4703615;30;45328;-89
2021/07/22 02:44:47;;;;;;;;;20.25;17.00;;;;;;;;4687917;30;45356;-93
2021/07/22 02:47:13;;;;;;;;;24.50;17.50;;;;;;;;4673235;30;47307;-91
2021/07/22 02:49:38;;;;;;;;;21.75;16.25;;;;;;;;4691488;30;45734;-88
2021/07/22 02:52:08;;;;;;;;;22.75;19.50;;;;;;;;4700568;30;47216;-88
2021/07/22 02:54:33;;;;;;;;;18.75;16.25;;;;;;;;4688482;30;45504;-87
2021/07/22 02:56:58;;;;;;;;;23.00;17.00;;;;;;;;4701678;30;45557;-89
2021/07/22 02:59:24;;;;;;;;;23.25;19.50;;;;;;;;4700681;30;45769;-89
2021/07/22 03:01:49;;;;;;;;;22.75;18.75;;;;;;;;4691548;30;45461;-90
2021/07/22 03:04:14;;;;;;;;;20.75;18.00;;;;;;;;4697432;30;45551;-88
2021/07/22 03:06:40;;;;;;;;;19.50;16.75;;;;;;;;4700135;30;47104;-88
2021/07/22 03:09:05;;;;;;;;;20.75;18.75;;;;;;;;4693739;30;45438;-88
2021/07/22 03:11:30;;;;;;;;;19.00;16.00;;;;;;;;4695156;30;45929;-88
2021/07/22 03:13:56;;;;;;;;;19.75;18.75;;;;;;;;4703949;30;45425;-87
2021/07/22 03:16:22;;;;;;;;;24.75;18.25;;;;;;;;4687178;30;53639;-89
2021/07/22 03:18:47;;;;;;;;;23.75;18.75;;;;;;;;4686035;30;45772;-88
2021/07/22 03:21:12;;;;;;;;;21.75;19.75;;;;;;;;4701060;30;45996;-89
2021/07/22 03:23:38;;;;;;;;;20.50;19.00;;;;;;;;4702908;30;45345;-89
2021/07/22 03:26:03;;;;;;;;;24.00;20.00;;;;;;;;4692855;30;47120;-90
2021/07/22 03:28:28;;;;;;;;;19.00;16.50;;;;;;;;4703476;30;45442;-88
2021/07/22 03:30:53;;;;;;;;;20.67;19.67;;;;;;;;4701390;30;45968;-91
2021/07/22 03:33:19;;;;;;;;;15.25;14.75;;;;;;;;4705058;30;45541;-88
2021/07/22 03:35:44;;;;;;;;;24.50;19.00;;;;;;;;4687933;30;47164;-89
2021/07/22 03:38:09;;;;;;;;;22.75;20.00;;;;;;;;4708330;30;45533;-87
2021/07/22 03:40:35;;;;;;;;;24.75;19.00;;;;;;;;4707724;30;45451;-88
2021/07/22 03:43:00;;;;;;;;;22.75;17.75;;;;;;;;4690878;30;45440;-89
2021/07/22 03:45:25;;;;;;;;;22.25;18.00;;;;;;;;4710546;30;45959;-88
2021/07/22 03:47:50;;;;;;;;;21.25;20.50;;;;;;;;4710261;30;45750;-91
2021/07/22 03:50:16;;;;;;;;;22.00;19.25;;;;;;;;4704648;30;45587;-88
2021/07/22 03:52:41;;;;;;;;;22.25;17.00;;;;;;;;4696290;30;45889;-88
2021/07/22 03:55:06;;;;;;;;;19.00;17.50;;;;;;;;4704183;30;46519;-88
2021/07/22 03:57:32;;;;;;;;;23.75;18.00;;;;;;;;4710088;30;45575;-90
2021/07/22 03:59:57;;;;;;;;;22.25;18.50;;;;;;;;4704530;30;46298;-87
2021/07/22 04:02:22;;;;;;;;;19.25;17.50;;;;;;;;4705010;30;45469;-89
2021/07/22 04:04:47;;;;;;;;;22.75;19.50;;;;;;;;4703795;30;45677;-87
2021/07/22 04:07:13;;;;;;;;;18.75;16.50;;;;;;;;4700616;30;45372;-90
2021/07/22 04:09:38;;;;;;;;;23.25;21.50;;;;;;;;4705708;30;45586;-88
2021/07/22 04:12:04;;;;;;;;;22.25;20.50;;;;;;;;4689708;30;45578;-88
2021/07/22 04:14:29;;;;;;;;;21.00;18.25;;;;;;;;4698057;30;47200;-88
2021/07/22 04:16:54;;;;;;;;;20.75;19.00;;;;;;;;4707093;30;46502;-88
2021/07/22 04:19:20;;;;;;;;;25.67;22.00;;;;;;;;4700898;30;45442;-88
2021/07/22 04:21:46;;;;;;;;;21.25;17.75;;;;;;;;4715253;30;45613;-87
2021/07/22 04:24:11;;;;;;;;;20.75;18.00;;;;;;;;4689644;30;48192;-89
2021/07/22 04:26:36;;;;;;;;;24.00;19.67;;;;;;;;4689367;30;46423;-91
2021/07/22 04:29:01;;;;;;;;;20.25;20.00;;;;;;;;4692227;30;46270;-89
2021/07/22 04:31:27;;;;;;;;;22.50;20.50;;;;;;;;4701032;30;45493;-88
2021/07/22 04:33:52;;;;;;;;;21.25;17.00;;;;;;;;4705989;30;46462;-88
2021/07/22 04:36:18;;;;;;;;;28.33;20.67;;;;;;;;4707886;30;45892;-87
2021/07/22 04:38:43;;;;;;;;;27.00;21.50;;;;;;;;4689653;30;45457;-90
2021/07/22 04:41:09;;;;;;;;;25.00;18.25;;;;;;;;4702490;30;45708;-90
2021/07/22 04:43:34;;;;;;;;;23.75;19.00;;;;;;;;4704245;30;45592;-88
2021/07/22 04:46:03;;;;;;;;;26.50;19.75;;;;;;;;4682645;30;45578;-89
2021/07/22 04:48:29;;;;;;;;;23.00;20.50;;;;;;;;5056079;24;45559;-91
2021/07/22 04:50:54;;;;;;;;;26.50;19.00;;;;;;;;4686301;30;45537;-88
2021/07/22 04:53:19;;;;;;;;;24.00;19.75;;;;;;;;4690439;30;46411;-88
2021/07/22 04:55:44;;;;;;;;;21.00;19.33;;;;;;;;4688432;30;45507;-91
2021/07/22 04:58:10;;;;;;;;;24.33;19.67;;;;;;;;4687245;30;45344;-93
2021/07/22 05:00:35;;;;;;;;;20.25;18.50;;;;;;;;4691173;30;45593;-88
2021/07/22 05:03:00;;;;;;;;;20.67;19.00;;;;;;;;4660617;30;45624;-87
2021/07/22 05:05:26;;;;;;;;;23.00;19.50;;;;;;;;4679907;30;47455;-90
2021/07/22 05:07:51;;;;;;;;;23.00;16.75;;;;;;;;4681981;30;45755;-90
2021/07/22 05:10:16;;;;;;;;;22.67;21.00;;;;;;;;4696773;30;45566;-91
2021/07/22 05:12:41;;;;;;;;;27.00;21.25;;;;;;;;4690856;30;46022;-91
2021/07/22 05:15:07;;;;;;;;;22.67;20.00;;;;;;;;4685910;30;45827;-93
2021/07/22 05:17:35;;;;;;;;;22.25;19.50;;;;;;;;4689046;30;45462;-89
2021/07/22 05:20:00;;;;;;;;;22.50;21.00;;;;;;;;4697504;30;46734;-91
2021/07/22 05:22:25;;;;;;;;;30.00;21.33;;;;;;;;4691033;30;48824;-90
2021/07/22 05:24:51;;;;;;;;;22.33;18.33;;;;;;;;4680919;30;46119;-91
2021/07/22 05:27:16;;;;;;;;;22.75;20.50;;;;;;;;4694852;30;45658;-90
2021/07/22 05:29:41;;;;;;;;;27.25;21.75;;;;;;;;4691880;30;45482;-89
2021/07/22 05:32:07;;;;;;;;;24.75;22.75;;;;;;;;4694896;30;45441;-89
2021/07/22 05:34:32;;;;;;;;;25.50;24.25;;;;;;;;4689039;30;46087;-90
2021/07/22 05:36:57;;;;;;;;;24.00;20.00;;;;;;;;4693499;30;45417;-89
2021/07/22 05:39:22;;;;;;;;;27.33;21.33;;;;;;;;4680458;30;45564;-88
2021/07/22 05:41:47;;;;;;;;;26.00;21.67;;;;;;;;4693290;30;45637;-88
2021/07/22 05:44:13;;;;;;;;;23.00;20.33;;;;;;;;4677972;30;45930;-87
2021/07/22 05:46:54;;;;;;;;;25.75;20.00;;;;;;;;4693933;30;45570;-90
2021/07/22 05:49:19;;;;;;;;;23.00;19.50;;;;;;;;4694205;30;45426;-88
2021/07/22 05:51:45;;;;;;;;;25.00;22.00;;;;;;;;4678540;30;47094;-88
2021/07/22 05:54:28;;;;;;;;;;;;;;;;;;;;;
2021/07/22 05:57:00;;;;;;;;;25.50;19.50;;;;;;;;4646588;30;67473;-83
2021/07/22 05:59:28;;;;;;;;;26.25;19.75;;;;;;;;4653304;30;46129;-81
2021/07/22 06:02:19;;;;;;;;;26.25;21.50;;;;;;;;4655775;30;45600;-82
2021/07/22 06:05:03;;;;;;;;;;;;;;;;;;;;;
2021/07/22 06:08:01;;;;;;;;;;;;;;;;;;;;;
2021/07/22 06:16:13;;;;;;;;;26.00;22.50;;;;;;;;5120959;24;45508;-86
2021/07/22 06:18:39;;;;;;;;;21.00;18.00;;;;;;;;4698451;30;45653;-85
2021/07/22 06:33:59;;;;;;;;;19.75;16.00;;;;;;;;5510301;24;47060;-86
2021/07/22 06:36:25;;;;;;;;;22.00;19.00;;;;;;;;4888711;24;46281;-92
2021/07/22 06:55:02;;;;;;;;;18.50;16.00;;;;;;;;5013644;24;46763;-90
2021/07/22 06:57:27;;;;;;;;;22.00;17.75;;;;;;;;4670428;30;45671;-91
2021/07/22 06:59:52;;;;;;;;;20.00;19.25;;;;;;;;4669462;30;46072;-88
2021/07/22 07:02:18;;;;;;;;;19.00;15.67;;;;;;;;4676130;30;45571;-87
2021/07/22 07:04:46;;;;;;;;;19.67;16.33;;;;;;;;4671462;24;47173;-92
2021/07/22 07:07:11;;;;;;;;;16.50;15.50;;;;;;;;4719597;24;45674;-92
2021/07/22 07:09:37;;;;;;;;;18.50;16.50;;;;;;;;4688284;30;45563;-89
2021/07/22 07:12:02;;;;;;;;;19.67;17.00;;;;;;;;4683859;30;45458;-88
2021/07/22 07:14:27;;;;;;;;;22.00;19.25;;;;;;;;4682391;30;46305;-91
2021/07/22 07:20:25;;;;;;;;;20.75;18.25;;;;;;;;4660223;30;45912;-92
2021/07/22 07:30:55;;;;;;;;;19.25;14.75;;;;;;;;4929233;24;46020;-91
2021/07/22 07:33:21;;;;;;;;;19.75;17.50;;;;;;;;4677833;30;45675;-92
2021/07/22 07:43:34;;;;;;;;;17.75;14.00;;;;;;;;4698881;30;45955;-82
2021/07/22 07:45:59;;;;;;;;;19.00;13.50;;;;;;;;4690620;30;45959;-85
2021/07/22 07:48:25;;;;;;;;;16.50;13.75;;;;;;;;4701719;30;45620;-83
2021/07/22 07:50:50;;;;;;;;;15.75;15.00;;;;;;;;4690855;30;45645;-83
2021/07/22 07:53:17;;;;;;;;;15.25;14.50;;;;;;;;4697823;30;45605;-82
2021/07/22 07:58:51;;;;;;;;;18.50;16.00;;;;;;;;4720373;30;45609;-82
2021/07/22 08:01:16;;;;;;;;;17.75;14.25;;;;;;;;4684269;30;46160;-81
2021/07/22 08:03:41;;;;;;;;;16.75;15.00;;;;;;;;4680874;30;45980;-84
2021/07/22 08:06:07;;;;;;;;;19.50;18.00;;;;;;;;4692406;30;47079;-85
2021/07/22 08:08:32;;;;;;;;;18.25;17.00;;;;;;;;4692236;30;46289;-82
2021/07/22 08:14:00;;;;;;;;;24.25;18.50;;;;;;;;4690834;30;46133;-83
2021/07/22 08:16:32;;;;;;;;;20.75;17.00;;;;;;;;4681308;30;45955;-83
2021/07/22 08:25:23;;;;;;;;;17.00;16.00;;;;;;;;4699210;30;45775;-82
2021/07/22 08:27:48;;;;;;;;;24.75;18.00;;;;;;;;4699073;30;45968;-84
2021/07/22 08:36:19;;;;;;;;;19.75;15.00;;;;;;;;4709508;30;45534;-82
2021/07/22 08:45:11;;;;;;;;;13.75;13.25;;;;;;;;4644882;30;45751;-79
2021/07/22 08:50:40;;;;;;;;;15.00;14.00;;;;;;;;4651454;30;45583;-80
2021/07/22 08:53:06;;;;;;;;;18.50;16.00;;;;;;;;4657779;30;45789;-81
2021/07/22 08:58:38;;;;;;;;;15.75;15.75;;;;;;;;4671884;25;45415;-79
2021/07/22 09:16:36;;;;;;;;;14.50;13.50;;;;;;;;4550241;31;45749;-79
2021/07/22 09:19:38;;;;;;;;;18.25;16.00;;;;;;;;4549290;31;46182;-79
2021/07/22 09:22:08;;;;;;;;;21.00;16.00;;;;;;;;4530752;31;45614;-81
2021/07/22 09:25:05;;;;;;;;;22.75;16.75;;;;;;;;4537577;31;47052;-81
2021/07/22 09:27:30;;;;;;;;;21.75;18.25;;;;;;;;4547609;31;46103;-80
2021/07/22 09:39:18;;;;;;;;;14.25;13.50;;;;;;;;4512864;31;45475;-79
2021/07/22 09:41:43;;;;;;;;;18.25;16.75;;;;;;;;4527252;31;45633;-80
2021/07/22 09:44:29;;;;;;;;;14.25;9.75;;;;;;;;4552359;31;45555;-81
2021/07/22 09:47:14;;;;;;;;;20.50;16.25;;;;;;;;4571054;30;48170;-80
2021/07/22 09:50:00;;;;;;;;;20.00;15.25;;;;;;;;4583515;30;45792;-80
2021/07/22 09:55:28;;;;;;;;;14.25;13.00;;;;;;;;4602946;24;45531;-81
2021/07/22 10:43:56;;;;;;;;;13.25;12.25;;;;;;;;4562814;31;45515;-79
2021/07/22 10:59:55;;;;;;;;;13.75;12.00;;;;;;;;4818133;24;45653;-92
2021/07/22 11:02:42;;;;;;;;;17.25;14.75;;;;;;;;4694201;30;45540;-93
2021/07/22 11:08:02;;;;;;;;;14.25;14.25;;;;;;;;4485371;28;45277;-92
2021/07/22 11:10:46;;;;;;;;;14.00;13.75;;;;;;;;4695437;30;45363;-91
2021/07/22 11:13:32;;;;;;;;;15.75;14.75;;;;;;;;4697262;30;45941;-91
2021/07/22 11:15:57;;;;;;;;;18.50;14.00;;;;;;;;4676760;30;45891;-91
2021/07/22 11:18:42;;;;;;;;;16.75;15.50;;;;;;;;4681612;30;46931;-92
2021/07/22 11:24:03;;;;;;;;;16.25;13.75;;;;;;;;5543910;24;45768;-90
2021/07/22 11:26:30;;;;;;;;;17.00;16.75;;;;;;;;4705033;29;45559;-91
2021/07/22 11:28:56;;;;;;;;;12.25;9.50;;;;;;;;4700482;30;45445;-91
2021/07/22 11:31:22;;;;;;;;;16.75;14.75;;;;;;;;4696211;30;45781;-90
2021/07/22 11:33:47;;;;;;;;;14.75;13.25;;;;;;;;4696671;30;46161;-92
2021/07/22 11:36:14;;;;;;;;;15.00;12.00;;;;;;;;4694926;30;45389;-92
2021/07/22 11:38:39;;;;;;;;;14.00;12.50;;;;;;;;4680953;30;48337;-93
2021/07/22 11:41:12;;;;;;;;;17.00;13.00;;;;;;;;4697113;30;45882;-93
2021/07/22 11:43:51;;;;;;;;;17.50;15.50;;;;;;;;4692710;30;45361;-93
2021/07/22 11:46:17;;;;;;;;;13.25;13.25;;;;;;;;4682163;30;45446;-92
2021/07/22 11:48:43;;;;;;;;;13.50;12.25;;;;;;;;4699320;30;46634;-92
2021/07/22 11:51:13;;;;;;;;;14.50;11.50;;;;;;;;4695744;30;45859;-92
2021/07/22 11:53:38;;;;;;;;;18.25;14.50;;;;;;;;4693919;30;45539;-93
2021/07/22 12:34:49;;;;;;;;;16.25;16.00;;;;;;;;4658246;30;45610;-91
2021/07/22 12:37:14;;;;;;;;;18.50;16.25;;;;;;;;4660809;30;45520;-92
2021/07/22 12:39:40;;;;;;;;;21.67;16.67;;;;;;;;4661657;30;45528;-93
2021/07/22 12:42:09;;;;;;;;;19.00;14.00;;;;;;;;4647254;30;47269;-91
2021/07/22 12:44:45;;;;;;;;;15.25;13.25;;;;;;;;5145742;24;45069;-85
2021/07/22 12:47:28;;;;;;;;;13.25;13.00;;;;;;;;4692455;30;45684;-88
2021/07/22 12:49:53;;;;;;;;;20.25;14.50;;;;;;;;4695650;30;45545;-88
2021/07/22 12:52:19;;;;;;;;;16.25;12.50;;;;;;;;4692764;30;46397;-89
2021/07/22 12:54:45;;;;;;;;;13.75;13.50;;;;;;;;4678841;30;45661;-89
2021/07/22 12:57:10;;;;;;;;;12.75;12.75;;;;;;;;4695237;30;46098;-89
2021/07/22 12:59:35;;;;;;;;;15.00;13.25;;;;;;;;4999528;24;45739;-86
2021/07/22 13:04:31;;;;;;;;;15.00;15.00;;;;;;;;4685417;30;45784;-89
2021/07/22 13:06:56;;;;;;;;;14.75;12.75;;;;;;;;4727897;24;45538;-83
2021/07/22 13:18:04;;;;;;;;;12.75;11.50;;;;;;;;5000911;24;46819;-92
2021/07/22 13:20:29;;;;;;;;;15.25;13.75;;;;;;;;4692053;30;45400;-91
2021/07/22 13:25:29;;;;;;;;;15.50;12.25;;;;;;;;5204456;24;45707;-88
2021/07/22 13:30:34;;;;;;;;;16.50;13.25;;;;;;;;5558311;24;46695;-90
2021/07/22 13:32:59;;;;;;;;;15.00;13.75;;;;;;;;4666460;30;47879;-91
2021/07/22 13:35:33;;;;;;;;;13.75;12.75;;;;;;;;4687036;30;45664;-92
2021/07/22 13:37:58;;;;;;;;;15.25;14.25;;;;;;;;4686258;30;45588;-91
2021/07/22 13:40:24;;;;;;;;;13.50;12.00;;;;;;;;4683468;30;47028;-91
2021/07/22 13:42:49;;;;;;;;;17.00;12.67;;;;;;;;4684765;30;46618;-92
2021/07/22 13:45:14;;;;;;;;;16.67;13.33;;;;;;;;4662769;30;45638;-92
2021/07/22 13:47:39;;;;;;;;;12.50;12.00;;;;;;;;4661735;30;45538;-93
2021/07/22 13:50:05;;;;;;;;;18.75;14.50;;;;;;;;4663047;30;45607;-91
2021/07/22 13:52:30;;;;;;;;;15.50;12.75;;;;;;;;4680248;30;54925;-92
2021/07/22 13:54:55;;;;;;;;;17.00;14.33;;;;;;;;4685323;30;45499;-92
2021/07/22 13:57:20;;;;;;;;;12.67;12.67;;;;;;;;4667160;30;45405;-93
2021/07/22 13:59:46;;;;;;;;;16.67;14.33;;;;;;;;4673594;30;45843;-93
2021/07/22 14:02:17;;;;;;;;;12.75;12.75;;;;;;;;4654057;30;48489;-90
2021/07/22 14:04:42;;;;;;;;;12.50;12.50;;;;;;;;4659098;30;45958;-91
2021/07/22 14:07:07;;;;;;;;;17.33;14.00;;;;;;;;4676426;30;46088;-91
2021/07/22 14:09:33;;;;;;;;;12.00;10.33;;;;;;;;4663668;30;45584;-93
2021/07/22 14:11:58;;;;;;;;;15.25;13.75;;;;;;;;4680090;30;45941;-87
2021/07/22 14:15:06;;;;;;;;;;;;;;;;;;;;;
2021/07/22 14:17:31;;;;;;;;;14.75;14.00;;;;;;;;4681255;30;68437;-90
2021/07/22 14:19:56;;;;;;;;;16.75;12.75;;;;;;;;4685744;30;45380;-90
2021/07/22 14:22:22;;;;;;;;;12.00;10.75;;;;;;;;4682605;30;46468;-88
2021/07/22 14:24:47;;;;;;;;;14.75;13.50;;;;;;;;4666996;30;45565;-88
2021/07/22 14:27:12;;;;;;;;;14.50;12.25;;;;;;;;4683549;30;45372;-90
2021/07/22 14:29:38;;;;;;;;;14.00;12.50;;;;;;;;4683530;30;45512;-88
2021/07/22 14:32:04;;;;;;;;;14.50;13.00;;;;;;;;4683738;30;46073;-89
2021/07/22 14:34:30;;;;;;;;;16.50;15.00;;;;;;;;4681560;30;45669;-89
2021/07/22 14:36:55;;;;;;;;;16.50;13.50;;;;;;;;4680109;30;45613;-87
2021/07/22 14:42:39;;;;;;;;;13.75;13.50;;;;;;;;4642507;30;46440;-90
2021/07/22 14:45:29;;;;;;;;;15.50;12.75;;;;;;;;4629600;30;45656;-88
2021/07/22 14:48:24;;;;;;;;;;;;;;;;;;;;;
2021/07/22 14:50:51;;;;;;;;;17.50;15.50;;;;;;;;4571059;30;71828;-91
2021/07/22 14:53:17;;;;;;;;;17.25;13.50;;;;;;;;4577379;30;47122;-88
2021/07/22 14:55:42;;;;;;;;;15.50;14.50;;;;;;;;4571414;30;45865;-86
2021/07/22 14:58:07;;;;;;;;;18.50;12.00;;;;;;;;4575830;30;45454;-88
2021/07/22 15:00:33;;;;;;;;;14.25;12.00;;;;;;;;4573499;30;45760;-88
2021/07/22 15:02:58;;;;;;;;;14.75;14.00;;;;;;;;4576592;30;45731;-89
2021/07/22 15:05:24;;;;;;;;;17.25;14.00;;;;;;;;4566281;31;45827;-91
2021/07/22 15:10:35;;;;;;;;;12.25;10.50;;;;;;;;4572794;30;45698;-87
2021/07/22 15:13:00;;;;;;;;;16.25;15.00;;;;;;;;4569489;30;47240;-88
2021/07/22 15:15:26;;;;;;;;;12.50;12.50;;;;;;;;4580082;30;44922;-87
2021/07/22 15:17:51;;;;;;;;;12.25;12.25;;;;;;;;4570669;30;45530;-87
2021/07/22 15:20:18;;;;;;;;;13.25;12.75;;;;;;;;4602026;30;45360;-87
2021/07/22 15:22:44;;;;;;;;;14.00;13.00;;;;;;;;4597533;30;48136;-91
2021/07/22 15:25:09;;;;;;;;;17.00;15.00;;;;;;;;4597601;30;45361;-88
2021/07/22 15:27:35;;;;;;;;;12.50;12.00;;;;;;;;4637383;30;45538;-90
2021/07/22 15:30:00;;;;;;;;;16.00;13.00;;;;;;;;4680309;30;45466;-90
2021/07/22 15:32:28;;;;;;;;;13.75;13.75;;;;;;;;4684423;30;46500;-88
2021/07/22 15:34:53;;;;;;;;;15.25;15.00;;;;;;;;4685478;30;45524;-93
2021/07/22 15:37:18;;;;;;;;;16.67;12.33;;;;;;;;4682602;30;45610;-87
2021/07/22 15:40:23;;;;;;;;;18.00;12.50;;;;;;;;4679691;30;45529;-88
2021/07/22 15:42:49;;;;;;;;;11.50;11.50;;;;;;;;4653317;30;47301;-89
2021/07/22 15:45:14;;;;;;;;;13.75;13.75;;;;;;;;4684569;30;45409;-87
2021/07/22 15:47:39;;;;;;;;;15.00;15.00;;;;;;;;4678052;30;45486;-88
2021/07/22 15:50:05;;;;;;;;;16.50;14.00;;;;;;;;4669158;30;45318;-92
2021/07/22 15:52:30;;;;;;;;;15.25;13.75;;;;;;;;4659928;30;48458;-91
2021/07/22 15:55:01;;;;;;;;;16.25;14.75;;;;;;;;4672303;30;45822;-93
2021/07/22 15:57:26;;;;;;;;;13.75;13.25;;;;;;;;4675620;30;45798;-92
2021/07/22 15:59:52;;;;;;;;;12.00;12.00;;;;;;;;4661659;30;45453;-91
2021/07/22 16:02:19;;;;;;;;;15.00;13.25;;;;;;;;4682183;30;46547;-87
2021/07/22 16:05:10;;;;;;;;;17.25;15.75;;;;;;;;4669814;30;46037;-92
2021/07/22 16:07:35;;;;;;;;;18.00;14.25;;;;;;;;4676134;30;45892;-92
2021/07/22 16:10:06;;;;;;;;;19.25;14.25;;;;;;;;4672224;30;45550;-92
2021/07/22 16:12:37;;;;;;;;;17.00;15.25;;;;;;;;4680746;30;46259;-92
2021/07/22 16:15:02;;;;;;;;;17.75;15.50;;;;;;;;4664039;30;45685;-92
2021/07/22 16:17:28;;;;;;;;;18.25;14.50;;;;;;;;4685136;30;45567;-91
2021/07/22 16:19:54;;;;;;;;;17.00;16.00;;;;;;;;4685527;30;45936;-92
2021/07/22 16:22:19;;;;;;;;;15.00;14.00;;;;;;;;4681025;30;46077;-90
2021/07/22 16:24:44;;;;;;;;;15.50;14.25;;;;;;;;4682310;30;45807;-92
2021/07/22 16:29:45;;;;;;;;;15.75;13.25;;;;;;;;4753682;24;45527;-92
2021/07/22 16:37:51;;;;;;;;;;;;;;;;;;;;;
2021/07/22 16:46:46;;;;;;;;;15.50;15.25;;;;;;;;4677319;24;45539;-88
2021/07/22 16:49:11;;;;;;;;;14.67;13.33;;;;;;;;4686362;30;46423;-87
2021/07/22 16:51:37;;;;;;;;;16.33;15.00;;;;;;;;4678755;30;45559;-86
2021/07/22 16:54:02;;;;;;;;;14.00;14.00;;;;;;;;4676640;30;48263;-88
2021/07/22 16:56:27;;;;;;;;;12.67;11.67;;;;;;;;4685160;30;45401;-88
2021/07/22 16:58:52;;;;;;;;;17.33;13.00;;;;;;;;4690521;30;45949;-86
2021/07/22 17:01:17;;;;;;;;;19.33;17.67;;;;;;;;4687019;30;45506;-87
2021/07/22 17:03:43;;;;;;;;;14.33;11.67;;;;;;;;4691500;30;45360;-88
2021/07/22 17:06:08;;;;;;;;;16.00;15.67;;;;;;;;4688108;30;45669;-87
2021/07/22 17:08:33;;;;;;;;;18.67;18.00;;;;;;;;4690315;30;47436;-87
2021/07/22 17:10:58;;;;;;;;;18.67;14.33;;;;;;;;4679933;30;45653;-86
2021/07/22 17:13:23;;;;;;;;;15.75;13.50;;;;;;;;4687834;30;45489;-87
2021/07/22 17:15:49;;;;;;;;;13.75;11.75;;;;;;;;4686777;30;45579;-86
2021/07/22 17:18:14;;;;;;;;;16.50;14.00;;;;;;;;4689024;30;45847;-87
2021/07/22 17:23:10;;;;;;;;;13.00;13.00;;;;;;;;4656781;30;47005;-88
2021/07/22 17:28:20;;;;;;;;;15.00;13.75;;;;;;;;4453197;28;45889;-81
2021/07/22 17:30:51;;;;;;;;;12.00;12.00;;;;;;;;4682056;30;45600;-82
2021/07/22 17:33:23;;;;;;;;;14.50;12.00;;;;;;;;4663637;30;47908;-82
2021/07/22 17:35:49;;;;;;;;;12.00;12.00;;;;;;;;4677126;30;47398;-82
2021/07/22 17:38:17;;;;;;;;;14.75;14.00;;;;;;;;4671021;30;45876;-80
2021/07/22 17:41:28;;;;;;;;;;;;;;;;;;;;;
2021/07/22 17:43:59;;;;;;;;;15.75;11.50;;;;;;;;4627017;30;73086;-80
2021/07/22 17:46:33;;;;;;;;;11.25;9.50;;;;;;;;4593414;30;45974;-78
2021/07/22 17:48:58;;;;;;;;;12.75;12.50;;;;;;;;4594175;30;45628;-79
2021/07/22 17:51:23;;;;;;;;;12.00;12.00;;;;;;;;4611642;30;45546;-80
2021/07/22 17:53:49;;;;;;;;;16.00;15.00;;;;;;;;4612053;30;47110;-78
2021/07/22 17:56:15;;;;;;;;;16.00;14.25;;;;;;;;4610246;30;46221;-80
2021/07/22 17:58:40;;;;;;;;;16.25;13.00;;;;;;;;4605753;30;45608;-80
2021/07/22 18:01:05;;;;;;;;;13.00;13.00;;;;;;;;4608032;30;45407;-81
2021/07/22 18:03:31;;;;;;;;;14.50;13.25;;;;;;;;4611443;30;46235;-79
2021/07/22 18:05:56;;;;;;;;;16.50;13.50;;;;;;;;4596345;30;45473;-82
2021/07/22 18:08:49;;;;;;;;;13.50;12.50;;;;;;;;4613062;30;45376;-82
2021/07/22 18:11:23;;;;;;;;;16.50;14.00;;;;;;;;4613796;30;45712;-79
2021/07/22 18:13:48;;;;;;;;;11.50;10.00;;;;;;;;4617943;30;45846;-80
2021/07/22 18:24:54;;;;;;;;;14.75;14.00;;;;;;;;4885270;24;46055;-91
2021/07/22 18:27:19;;;;;;;;;15.50;14.25;;;;;;;;5068515;24;46076;-87
2021/07/22 18:29:44;;;;;;;;;17.00;14.00;;;;;;;;4680840;30;45852;-91
2021/07/22 18:32:30;;;;;;;;;13.33;13.00;;;;;;;;4684335;30;45541;-92
2021/07/22 18:35:12;;;;;;;;;16.50;13.25;;;;;;;;4687915;30;47286;-90
2021/07/22 18:37:40;;;;;;;;;16.50;13.00;;;;;;;;4676962;30;46477;-91
2021/07/22 18:40:09;;;;;;;;;13.25;11.25;;;;;;;;4700606;30;45625;-88
2021/07/22 18:42:34;;;;;;;;;14.25;11.75;;;;;;;;4688207;30;45577;-88
2021/07/22 18:45:00;;;;;;;;;15.50;14.00;;;;;;;;4698110;30;46675;-89
2021/07/22 18:47:25;;;;;;;;;24.25;20.50;;;;;;;;4678388;30;45588;-89
2021/07/22 18:50:06;;;;;;;;;49.75;40.25;;;;;;;;4690365;30;45534;-92
2021/07/22 18:52:31;;;;;;;;;30.50;27.75;;;;;;;;4690723;30;45582;-92
2021/07/22 18:54:56;;;;;;;;;33.50;30.25;;;;;;;;4690131;30;45537;-92
2021/07/22 19:02:24;;;;;;;;;18.25;15.75;;;;;;;;4662318;30;45848;-88
2021/07/22 19:04:49;;;;;;;;;16.67;15.00;;;;;;;;4646149;30;47306;-87
2021/07/22 19:07:15;;;;;;;;;18.00;16.00;;;;;;;;4661865;30;46036;-88
2021/07/22 19:09:40;;;;;;;;;17.00;15.00;;;;;;;;4664083;30;45483;-88
2021/07/22 19:12:05;;;;;;;;;36.00;30.33;;;;;;;;5355788;24;46198;-87
2021/07/22 19:23:42;;;;;;;;;20.00;16.50;;;;;;;;5145418;24;45406;-88
2021/07/22 19:26:08;;;;;;;;;16.50;16.00;;;;;;;;4688504;30;46353;-87
2021/07/22 19:28:33;;;;;;;;;23.75;18.00;;;;;;;;4675827;30;45567;-88